createdAt,value
2023-04-14T00:00:00.814Z,1.70
2023-04-14T00:02:46.942Z,1.90
2023-04-14T00:05:33.799Z,1.90
2023-04-14T00:08:18.994Z,2.00
2023-04-14T00:11:04.838Z,1.77
2023-04-14T00:13:50.418Z,1.90
2023-04-14T00:16:36.057Z,1.80
2023-04-14T00:19:21.438Z,1.70
2023-04-14T00:22:07.033Z,2.30
2023-04-14T00:24:52.532Z,2.20
2023-04-14T00:27:37.792Z,2.17
2023-04-14T00:30:23.242Z,2.17
2023-04-14T00:33:08.477Z,1.93
2023-04-14T00:35:54.005Z,2.00
2023-04-14T00:38:39.789Z,2.00
2023-04-14T00:41:26.180Z,2.07
2023-04-14T00:44:11.867Z,2.60
2023-04-14T00:46:59.110Z,2.37
2023-04-14T00:49:44.965Z,2.33
2023-04-14T00:52:31.934Z,2.33
2023-04-14T00:55:20.158Z,2.37
2023-04-14T00:58:06.185Z,2.40
2023-04-14T01:00:55.449Z,2.27
2023-04-14T01:03:41.225Z,2.30
2023-04-14T01:06:27.225Z,2.07
2023-04-14T01:09:12.974Z,2.40
2023-04-14T01:12:34.453Z,2.30
2023-04-14T01:15:33.876Z,2.10
2023-04-14T01:18:26.101Z,2.10
2023-04-14T01:21:16.849Z,1.93
2023-04-14T01:24:11.480Z,2.10
2023-04-14T01:27:35.792Z,1.95
2023-04-14T01:30:28.366Z,1.90
2023-04-14T01:33:18.367Z,2.27
2023-04-14T01:36:08.911Z,2.10
2023-04-14T01:38:56.660Z,2.30
2023-04-14T01:41:45.886Z,2.00
2023-04-14T01:44:33.098Z,1.80
2023-04-14T01:47:21.734Z,2.00
2023-04-14T01:50:09.332Z,2.30
2023-04-14T01:52:55.590Z,2.20
2023-04-14T01:55:42.152Z,1.97
2023-04-14T01:58:30.240Z,2.20
2023-04-14T02:01:17.405Z,1.93
2023-04-14T02:04:04.960Z,2.20
2023-04-14T02:06:51.960Z,2.10
2023-04-14T02:09:39.223Z,2.07
2023-04-14T02:12:26.229Z,2.10
2023-04-14T02:15:16.212Z,2.10
2023-04-14T02:18:05.748Z,2.50
2023-04-14T02:20:53.913Z,2.27
2023-04-14T02:23:39.267Z,2.10
2023-04-14T02:26:29.976Z,2.57
2023-04-14T02:29:19.696Z,2.30
2023-04-14T02:32:09.701Z,2.03
2023-04-14T02:35:06.516Z,2.30
2023-04-14T02:37:56.248Z,2.20
2023-04-14T02:40:43.873Z,2.30
2023-04-14T02:43:32.333Z,2.00
2023-04-14T02:46:22.389Z,1.93
2023-04-14T02:49:13.042Z,2.07
2023-04-14T02:51:59.370Z,2.40
2023-04-14T02:54:46.293Z,2.77
2023-04-14T02:57:33.424Z,4.13
2023-04-14T03:00:20.374Z,4.00
2023-04-14T03:03:06.850Z,4.80
2023-04-14T03:05:52.654Z,4.70
2023-04-14T03:08:40.283Z,4.03
2023-04-14T03:11:26.268Z,4.07
2023-04-14T03:14:12.713Z,2.80
2023-04-14T03:16:58.968Z,3.10
2023-04-14T03:19:48.712Z,3.03
2023-04-14T03:22:40.803Z,3.27
2023-04-14T03:25:31.143Z,2.33
2023-04-14T03:28:20.443Z,2.87
2023-04-14T03:31:08.164Z,2.30
2023-04-14T03:33:57.810Z,2.97
2023-04-14T03:36:44.798Z,2.90
2023-04-14T03:39:34.550Z,2.63
2023-04-14T03:42:25.054Z,2.50
2023-04-14T03:45:11.290Z,2.53
2023-04-14T03:48:03.685Z,2.80
2023-04-14T03:50:52.700Z,2.47
2023-04-14T03:53:41.849Z,2.73
2023-04-14T03:56:29.307Z,2.43
2023-04-14T03:59:17.987Z,2.77
2023-04-14T04:02:03.999Z,2.20
2023-04-14T04:04:50.536Z,2.30
2023-04-14T04:07:37.774Z,2.50
2023-04-14T04:10:24.242Z,2.50
2023-04-14T04:13:15.641Z,2.33
2023-04-14T04:16:02.415Z,2.23
2023-04-14T04:18:50.058Z,2.57
2023-04-14T04:21:40.023Z,2.70
2023-04-14T04:24:29.178Z,2.80
2023-04-14T04:27:27.182Z,2.50
2023-04-14T04:30:16.523Z,2.37
2023-04-14T04:33:06.453Z,2.30
2023-04-14T04:35:53.029Z,2.30
2023-04-14T04:38:38.505Z,2.63
2023-04-14T04:41:28.696Z,2.50
2023-04-14T04:44:14.276Z,2.77
2023-04-14T04:47:00.826Z,2.40
2023-04-14T04:49:46.335Z,2.80
2023-04-14T04:52:31.872Z,2.63
2023-04-14T04:55:17.511Z,2.90
2023-04-14T04:58:03.015Z,2.60
2023-04-14T05:00:48.753Z,2.40
2023-04-14T05:03:34.440Z,2.73
2023-04-14T05:06:20.095Z,2.60
2023-04-14T05:09:06.031Z,2.70
2023-04-14T05:11:51.675Z,2.33
2023-04-14T05:14:37.081Z,2.67
2023-04-14T05:17:22.662Z,2.53
2023-04-14T05:20:08.843Z,2.83
2023-04-14T05:22:54.407Z,3.00
2023-04-14T05:25:39.839Z,2.83
2023-04-14T05:28:25.610Z,2.40
2023-04-14T05:31:11.042Z,2.90
2023-04-14T05:33:56.648Z,2.60
2023-04-14T05:36:42.288Z,2.67
2023-04-14T05:39:27.461Z,2.93
2023-04-14T05:42:13.179Z,2.60
2023-04-14T05:44:58.834Z,2.40
2023-04-14T05:47:44.708Z,2.80
2023-04-14T05:50:30.331Z,2.53
2023-04-14T05:53:15.532Z,2.80
2023-04-14T05:56:01.435Z,2.33
2023-04-14T05:58:47.705Z,3.30
2023-04-14T06:01:33.104Z,3.13
2023-04-14T06:04:18.931Z,2.60
2023-04-14T06:07:04.431Z,2.83
2023-04-14T06:09:50.090Z,2.60
2023-04-14T06:12:35.463Z,2.90
2023-04-14T06:15:21.012Z,3.10
2023-04-14T06:18:06.510Z,3.10
2023-04-14T06:20:51.771Z,2.30
2023-04-14T06:23:37.082Z,2.63
2023-04-14T06:26:22.467Z,2.00
2023-04-14T06:29:08.049Z,2.23
2023-04-14T06:31:54.935Z,2.20
2023-04-14T06:34:40.703Z,2.30
2023-04-14T06:40:01.942Z,2.10
2023-04-14T06:42:47.319Z,2.10
2023-04-14T06:45:32.741Z,1.83
2023-04-14T06:48:18.187Z,1.87
2023-04-14T06:51:03.934Z,1.80
2023-04-14T06:53:49.346Z,1.93
2023-04-14T06:56:34.801Z,2.00
2023-04-14T06:59:21.562Z,1.73
2023-04-14T07:02:07.749Z,1.50
2023-04-14T07:04:53.305Z,1.70
2023-04-14T07:07:40.415Z,1.93
2023-04-14T07:10:26.208Z,2.00
2023-04-14T07:13:11.817Z,1.60
2023-04-14T07:15:57.448Z,1.60
2023-04-14T07:18:42.731Z,1.80
2023-04-14T07:21:27.999Z,1.50
2023-04-14T07:24:15.332Z,1.50
2023-04-14T07:27:01.332Z,1.83
2023-04-14T07:29:46.640Z,1.30
2023-04-14T07:32:33.013Z,1.53
2023-04-14T07:35:19.482Z,1.33
2023-04-14T07:38:04.823Z,1.40
2023-04-14T07:40:50.045Z,1.20
2023-04-14T07:43:35.945Z,1.40
2023-04-14T07:46:22.209Z,1.63
2023-04-14T07:49:08.360Z,1.37
2023-04-14T07:51:53.906Z,1.43
2023-04-14T07:54:39.495Z,1.47
2023-04-14T07:57:24.645Z,1.80
2023-04-14T08:00:11.092Z,1.60
2023-04-14T08:02:56.673Z,1.30
2023-04-14T08:05:42.314Z,1.02
2023-04-14T08:08:28.297Z,1.30
2023-04-14T08:11:13.895Z,1.55
2023-04-14T08:13:59.633Z,1.52
2023-04-14T08:16:45.111Z,1.40
2023-04-14T08:19:31.538Z,2.13
2023-04-14T08:22:16.858Z,1.23
2023-04-14T08:25:02.225Z,1.40
2023-04-14T08:27:47.934Z,1.30
2023-04-14T08:30:33.124Z,1.30
2023-04-14T08:33:18.818Z,1.70
2023-04-14T08:36:04.705Z,1.30
2023-04-14T08:38:50.030Z,1.35
2023-04-14T08:41:38.714Z,1.17
2023-04-14T08:44:24.415Z,1.30
2023-04-14T08:47:11.036Z,1.10
2023-04-14T08:50:06.104Z,1.50
2023-04-14T08:52:56.792Z,1.50
2023-04-14T08:55:43.612Z,1.23
2023-04-14T08:58:29.354Z,1.30
2023-04-14T09:01:15.496Z,1.45
2023-04-14T09:04:05.096Z,1.50
2023-04-14T09:06:51.493Z,1.30
2023-04-14T09:09:37.343Z,1.10
2023-04-14T09:12:25.458Z,1.45
2023-04-14T09:15:11.871Z,1.58
2023-04-14T09:17:57.688Z,1.50
2023-04-14T09:20:43.026Z,2.20
2023-04-14T09:23:29.736Z,2.33
2023-04-14T09:26:15.299Z,2.47
2023-04-14T09:29:01.307Z,1.52
2023-04-14T09:31:47.243Z,1.25
2023-04-14T09:34:32.610Z,1.85
2023-04-14T09:37:18.432Z,1.38
2023-04-14T09:40:04.122Z,1.30
2023-04-14T09:42:49.426Z,1.65
2023-04-14T09:45:43.235Z,1.80
2023-04-14T09:48:28.798Z,1.30
2023-04-14T09:51:14.421Z,1.45
2023-04-14T09:54:05.343Z,1.27
2023-04-14T09:56:52.891Z,1.20
2023-04-14T09:59:39.299Z,1.40
2023-04-14T10:02:25.935Z,1.50
2023-04-14T10:05:11.577Z,1.60
2023-04-14T10:08:03.439Z,1.23
2023-04-14T10:10:48.762Z,1.30
2023-04-14T10:13:34.473Z,1.15
2023-04-14T10:16:20.594Z,1.55
2023-04-14T10:19:06.497Z,1.40
2023-04-14T10:21:52.865Z,1.20
2023-04-14T10:24:39.921Z,1.40
2023-04-14T10:27:31.246Z,1.75
2023-04-14T10:30:16.924Z,1.17
2023-04-14T10:33:02.654Z,1.20
2023-04-14T10:35:53.539Z,0.80
2023-04-14T10:38:42.390Z,1.30
2023-04-14T10:41:28.098Z,1.10
2023-04-14T10:44:23.748Z,1.13
2023-04-14T10:47:09.429Z,1.30
2023-04-14T10:50:04.258Z,1.75
2023-04-14T10:52:56.477Z,1.33
2023-04-14T10:55:52.236Z,1.10
2023-04-14T10:58:38.226Z,1.20
2023-04-14T11:01:32.320Z,1.30
2023-04-14T11:04:19.278Z,1.33
2023-04-14T11:07:09.628Z,1.42
2023-04-14T11:10:01.216Z,1.23
2023-04-14T11:13:00.641Z,1.40
2023-04-14T11:16:06.901Z,1.20
2023-04-14T11:18:54.591Z,1.58
2023-04-14T11:21:49.912Z,1.35
2023-04-14T11:24:35.236Z,1.20
2023-04-14T11:27:20.970Z,1.23
2023-04-14T11:30:08.577Z,1.23
2023-04-14T11:32:57.793Z,1.23
2023-04-14T11:35:43.352Z,1.75
2023-04-14T11:38:29.308Z,0.90
2023-04-14T11:41:16.285Z,1.08
2023-04-14T11:44:01.737Z,1.38
2023-04-14T11:46:47.419Z,1.00
2023-04-14T11:49:36.641Z,1.17
2023-04-14T11:52:21.981Z,0.93
2023-04-14T11:55:07.860Z,0.90
2023-04-14T11:57:57.260Z,1.25
2023-04-14T12:00:43.614Z,0.82
2023-04-14T12:03:30.969Z,0.90
2023-04-14T12:06:16.916Z,1.13
2023-04-14T12:09:03.903Z,0.90
2023-04-14T12:11:55.850Z,0.80
2023-04-14T12:14:44.354Z,1.10
2023-04-14T12:17:30.602Z,1.33
2023-04-14T12:20:16.334Z,0.93
2023-04-14T12:23:03.009Z,0.75
2023-04-14T12:25:52.007Z,0.82
2023-04-14T12:28:39.252Z,0.90
2023-04-14T12:31:32.070Z,0.82
2023-04-14T12:34:28.244Z,0.95
2023-04-14T12:37:13.532Z,0.70
2023-04-14T12:40:01.410Z,0.70
2023-04-14T12:42:52.030Z,0.70
2023-04-14T12:45:45.281Z,0.90
2023-04-14T12:48:48.453Z,0.90
2023-04-14T12:51:40.204Z,0.90
2023-04-14T12:54:25.942Z,0.85
2023-04-14T12:57:11.558Z,0.73
2023-04-14T12:59:57.462Z,0.90
2023-04-14T13:02:45.519Z,1.17
2023-04-14T13:05:32.418Z,0.75
2023-04-14T13:08:17.962Z,0.80
2023-04-14T13:11:03.768Z,0.73
2023-04-14T13:13:49.111Z,0.70
2023-04-14T13:16:34.588Z,1.10
2023-04-14T13:19:20.433Z,0.80
2023-04-14T13:22:05.991Z,0.80
2023-04-14T13:24:51.696Z,1.02
2023-04-14T13:27:37.296Z,0.90
2023-04-14T13:30:22.571Z,0.88
2023-04-14T13:33:08.743Z,0.90
2023-04-14T13:35:55.669Z,0.95
2023-04-14T13:38:41.880Z,0.98
2023-04-14T13:41:27.281Z,0.80
2023-04-14T13:44:13.039Z,1.00
2023-04-14T13:46:58.464Z,0.70
2023-04-14T13:49:44.103Z,0.90
2023-04-14T13:52:29.571Z,0.80
2023-04-14T13:55:15.391Z,0.88
2023-04-14T13:58:01.057Z,0.90
2023-04-14T14:00:46.285Z,1.10
2023-04-14T14:03:32.575Z,0.80
2023-04-14T14:06:19.064Z,0.95
2023-04-14T14:09:06.351Z,0.90
2023-04-14T14:11:52.389Z,0.93
2023-04-14T14:14:38.151Z,0.80
2023-04-14T14:17:23.670Z,0.93
2023-04-14T14:20:09.684Z,0.90
2023-04-14T14:22:55.400Z,0.90
2023-04-14T14:25:41.109Z,0.80
2023-04-14T14:28:26.856Z,0.90
2023-04-14T14:31:12.276Z,0.85
2023-04-14T14:33:57.869Z,0.90
2023-04-14T14:36:43.662Z,1.00
2023-04-14T14:39:32.597Z,0.90
2023-04-14T14:42:17.920Z,1.10
2023-04-14T14:45:03.969Z,0.85
2023-04-14T14:47:49.730Z,0.77
2023-04-14T14:50:35.043Z,0.90
2023-04-14T14:53:20.585Z,0.80
2023-04-14T14:56:06.450Z,0.95
2023-04-14T14:58:52.834Z,0.88
2023-04-14T15:01:38.580Z,1.13
2023-04-14T15:04:24.074Z,0.90
2023-04-14T15:07:09.385Z,1.00
2023-04-14T15:09:55.448Z,0.70
2023-04-14T15:12:40.921Z,0.90
2023-04-14T15:15:26.708Z,0.85
2023-04-14T15:18:12.256Z,0.90
2023-04-14T15:20:57.737Z,0.80
2023-04-14T15:23:44.865Z,0.75
2023-04-14T15:26:30.434Z,0.90
2023-04-14T15:29:16.299Z,1.02
2023-04-14T15:32:02.212Z,1.48
2023-04-14T15:34:47.794Z,0.93
2023-04-14T15:37:33.161Z,1.10
2023-04-14T15:40:18.865Z,0.65
2023-04-14T15:43:04.075Z,0.77
2023-04-14T15:45:49.725Z,0.80
2023-04-14T15:48:35.035Z,0.95
2023-04-14T15:51:20.910Z,0.80
2023-04-14T15:54:06.883Z,0.80
2023-04-14T15:56:54.977Z,0.85
2023-04-14T15:59:40.592Z,1.00
2023-04-14T16:02:28.562Z,0.90
2023-04-14T16:05:14.196Z,0.70
2023-04-14T16:08:00.711Z,0.95
2023-04-14T16:10:46.044Z,1.00
2023-04-14T16:13:31.669Z,0.75
2023-04-14T16:16:17.795Z,0.80
2023-04-14T16:19:03.478Z,0.90
2023-04-14T16:21:49.146Z,1.30
2023-04-14T16:24:34.440Z,0.95
2023-04-14T16:27:19.944Z,0.70
2023-04-14T16:30:06.121Z,1.30
2023-04-14T16:32:51.729Z,1.00
2023-04-14T16:35:37.042Z,1.00
2023-04-14T16:38:22.963Z,1.15
2023-04-14T16:41:08.384Z,1.60
2023-04-14T16:43:53.766Z,1.20
2023-04-14T16:46:39.254Z,1.20
2023-04-14T16:49:25.215Z,1.20
2023-04-14T16:52:11.367Z,1.23
2023-04-14T16:54:57.609Z,0.95
2023-04-14T16:57:43.516Z,0.88
2023-04-14T17:00:29.697Z,0.95
2023-04-14T17:03:15.028Z,0.90
2023-04-14T17:06:00.766Z,1.20
2023-04-14T17:08:46.242Z,1.00
2023-04-14T17:11:32.159Z,0.73
2023-04-14T17:14:18.312Z,0.90
2023-04-14T17:17:03.570Z,1.67
2023-04-14T17:19:49.508Z,1.27
2023-04-14T17:22:35.235Z,1.08
2023-04-14T17:25:21.139Z,0.90
2023-04-14T17:28:06.755Z,1.00
2023-04-14T17:30:52.316Z,1.10
2023-04-14T17:33:37.992Z,1.10
2023-04-14T17:36:23.341Z,0.90
2023-04-14T17:39:10.331Z,1.10
2023-04-14T17:41:57.902Z,1.02
2023-04-14T17:44:43.237Z,1.30
2023-04-14T17:47:28.858Z,1.35
2023-04-14T17:50:14.130Z,1.10
2023-04-14T17:52:59.576Z,1.05
2023-04-14T17:55:45.264Z,1.30
2023-04-14T17:58:30.604Z,1.05
2023-04-14T18:01:16.478Z,0.93
2023-04-14T18:04:04.334Z,0.98
2023-04-14T18:06:50.322Z,1.23
2023-04-14T18:09:35.961Z,1.20
2023-04-14T18:12:24.250Z,1.10
2023-04-14T18:15:12.042Z,1.00
2023-04-14T18:17:57.706Z,1.15
2023-04-14T18:20:50.196Z,1.00
2023-04-14T18:23:36.449Z,1.20
2023-04-14T18:29:12.113Z,1.10
2023-04-14T18:31:58.355Z,1.15
2023-04-14T18:34:43.657Z,1.23
2023-04-14T18:37:29.169Z,1.30
2023-04-14T18:40:14.872Z,1.40
2023-04-14T18:43:01.539Z,0.90
2023-04-14T18:45:47.872Z,1.10
2023-04-14T18:48:33.437Z,1.50
2023-04-14T18:51:18.788Z,1.27
2023-04-14T18:54:04.689Z,1.10
2023-04-14T18:56:50.116Z,1.25
2023-04-14T18:59:36.197Z,1.17
2023-04-14T19:02:22.025Z,1.40
2023-04-14T19:05:08.376Z,1.50
2023-04-14T19:07:53.769Z,1.58
2023-04-14T19:10:39.831Z,1.20
2023-04-14T19:13:26.092Z,1.67
2023-04-14T19:16:12.580Z,1.10
2023-04-14T19:18:58.677Z,1.73
2023-04-14T19:21:44.333Z,1.58
2023-04-14T19:24:31.434Z,1.25
2023-04-14T19:27:16.599Z,1.23
2023-04-14T19:30:03.855Z,1.23
2023-04-14T19:32:50.589Z,1.08
2023-04-14T19:35:36.053Z,1.40
2023-04-14T19:38:21.768Z,1.40
2023-04-14T19:41:07.657Z,2.13
2023-04-14T19:43:53.142Z,1.52
2023-04-14T19:46:40.646Z,1.60
2023-04-14T19:49:26.316Z,1.58
2023-04-14T19:52:12.027Z,1.30
2023-04-14T19:54:58.279Z,1.55
2023-04-14T19:57:44.277Z,1.33
2023-04-14T20:00:30.263Z,1.45
2023-04-14T20:03:15.619Z,1.20
2023-04-14T20:06:02.001Z,1.20
2023-04-14T20:08:47.669Z,1.25
2023-04-14T20:11:33.142Z,1.20
2023-04-14T20:14:18.613Z,1.58
2023-04-14T20:17:04.100Z,1.20
2023-04-14T20:19:50.620Z,1.20
2023-04-14T20:22:36.410Z,1.80
2023-04-14T20:25:22.625Z,1.60
2023-04-14T20:28:09.152Z,1.10
2023-04-14T20:30:55.766Z,1.13
2023-04-14T20:33:42.183Z,1.30
2023-04-14T20:36:31.352Z,1.08
2023-04-14T20:39:16.748Z,1.30
2023-04-14T20:42:02.404Z,1.20
2023-04-14T20:44:47.728Z,1.42
2023-04-14T20:47:33.319Z,1.10
2023-04-14T20:50:18.962Z,1.23
2023-04-14T20:53:04.429Z,1.27
2023-04-14T20:55:51.044Z,1.45
2023-04-14T20:58:37.056Z,1.65
2023-04-14T21:01:23.911Z,1.15
2023-04-14T21:04:10.461Z,1.10
2023-04-14T21:06:57.447Z,1.13
2023-04-14T21:09:42.939Z,1.40
2023-04-14T21:12:35.901Z,1.63
2023-04-14T21:15:47.726Z,1.23
2023-04-14T21:18:27.852Z,1.33
2023-04-14T21:21:13.724Z,1.35
2023-04-14T21:23:59.329Z,1.30
2023-04-14T21:26:44.665Z,1.30
2023-04-14T21:29:30.180Z,1.20
2023-04-14T21:32:17.751Z,1.20
2023-04-14T21:35:03.189Z,1.10
2023-04-14T21:37:48.666Z,1.20
2023-04-14T21:40:34.248Z,1.00
2023-04-14T21:43:19.713Z,1.20
2023-04-14T21:46:05.558Z,1.20
2023-04-14T21:48:51.744Z,1.20
2023-04-14T21:51:37.488Z,0.98
2023-04-14T21:54:23.161Z,1.00
2023-04-14T21:57:08.580Z,1.20
2023-04-14T21:59:54.229Z,1.20
2023-04-14T22:02:40.113Z,1.10
2023-04-14T22:05:25.765Z,1.10
2023-04-14T22:08:12.189Z,0.90
2023-04-14T22:10:57.860Z,1.33
2023-04-14T22:13:43.181Z,1.15
2023-04-14T22:16:28.650Z,1.10
2023-04-14T22:19:14.603Z,0.95
2023-04-14T22:22:01.042Z,0.98
2023-04-14T22:24:46.735Z,1.20
2023-04-14T22:27:33.928Z,1.23
2023-04-14T22:30:19.373Z,1.20
2023-04-14T22:33:05.330Z,1.20
2023-04-14T22:35:50.739Z,1.30
2023-04-14T22:38:36.139Z,1.30
2023-04-14T22:41:21.733Z,1.30
2023-04-14T22:44:07.955Z,1.10
2023-04-14T22:46:53.404Z,1.20
2023-04-14T22:49:38.560Z,1.20
2023-04-14T22:52:24.190Z,1.10
2023-04-14T22:55:09.946Z,1.30
2023-04-14T22:57:55.232Z,1.00
2023-04-14T23:00:41.314Z,1.40
2023-04-14T23:03:26.904Z,1.58
2023-04-14T23:06:13.764Z,1.20
2023-04-14T23:08:59.834Z,1.40
2023-04-14T23:11:45.446Z,1.20
2023-04-14T23:14:32.358Z,1.27
2023-04-14T23:17:17.987Z,1.23
2023-04-14T23:20:03.473Z,1.30
2023-04-14T23:22:48.950Z,1.30
2023-04-14T23:25:34.399Z,1.20
2023-04-14T23:28:19.957Z,1.40
2023-04-14T23:31:05.546Z,1.20
2023-04-14T23:33:52.773Z,1.35
2023-04-14T23:36:38.500Z,1.30
2023-04-14T23:39:24.138Z,1.50
2023-04-14T23:42:09.737Z,1.38
2023-04-14T23:44:55.805Z,1.38
2023-04-14T23:47:41.344Z,1.30
2023-04-14T23:51:00.375Z,1.40
2023-04-14T23:53:33.168Z,1.20
2023-04-14T23:56:18.430Z,1.63
2023-04-14T23:59:04.094Z,1.40
